This is the latest recevied weather packets stored in our database for station/object DB5WY-13. If no packets are shown the sender has not sent any weather packets the latest 10 day(s).
| Time | Temp. | Humidity | Pressure | Rain* | Wind** | Luminosity | Snow |
|---|---|---|---|---|---|---|---|
| 1777184439 | 12.78° C | 55% | 1024.8 hPa | 0 mm | - | - | - |
| 1777183839 | 11.11° C | 56% | 1024.7 hPa | 0 mm | - | - | - |
| 1777183239 | 12.78° C | 54% | 1024.6 hPa | 0 mm | - | - | - |
| 1777182639 | 12.78° C | 56% | 1024.5 hPa | 0 mm | - | - | - |
| 1777182039 | 11.67° C | 58% | 1024.4 hPa | 0 mm | - | - | - |
| 1777181439 | 10.56° C | 62% | 1024.3 hPa | 0 mm | - | - | - |
| 1777180839 | 9.44° C | 65% | 1024.1 hPa | 0 mm | - | - | - |
| 1777180239 | 7.78° C | 74% | 1023.9 hPa | 0 mm | - | - | - |
| 1777179639 | 5° C | 79% | 1023.8 hPa | 0 mm | - | - | - |
| 1777179039 | 3.89° C | 81% | 1023.7 hPa | 0 mm | - | - | - |
| 1777178439 | 1.67° C | 83% | 1023.6 hPa | 0 mm | - | - | - |
| 1777177839 | 0° C | 81% | 1023.5 hPa | 0 mm | - | - | - |
| 1777177239 | 0° C | 80% | 1023.5 hPa | 0 mm | - | - | - |
| 1777176639 | 0° C | 79% | 1023.4 hPa | 0 mm | - | - | - |
| 1777176040 | 0.56° C | 79% | 1023.2 hPa | 0 mm | - | - | - |
| 1777175440 | 0.56° C | 79% | 1023.2 hPa | 0 mm | - | - | - |
| 1777174840 | 0.56° C | 78% | 1023 hPa | 0 mm | - | - | - |
| 1777174239 | 0.56° C | 78% | 1023.1 hPa | 0 mm | - | - | - |
| 1777173640 | 0.56° C | 77% | 1022.9 hPa | 0 mm | - | - | - |
| 1777173040 | 0.56° C | 76% | 1022.8 hPa | 0 mm | - | - | - |
| 1777172440 | 0.56° C | 75% | 1022.9 hPa | 0 mm | - | - | - |
| 1777171840 | 0.56° C | 75% | 1022.7 hPa | 0 mm | - | - | - |
| 1777171240 | 1.11° C | 74% | 1022.8 hPa | 0 mm | - | - | - |
| 1777170640 | 1.11° C | 73% | 1022.5 hPa | 0 mm | - | - | - |
| 1777170040 | 1.11° C | 73% | 1022.5 hPa | 0 mm | - | - | - |
* Rain latest hour (hover to see other rain measurements)
** Current wind speed in m/s (hover to see current wind gust speed)